Terminal Aerodrome Forecast
Issued by NWS

Home | Current Version | Previous Version | Text Only | Print | Product List | Glossary On
Versions: 1 2 3 4 5 6 7 8 9 10 11 12 13 14 15
000
FTUS44 KMAF 020526
TAFCNM
TAF
KCNM 020526Z 0206/0306 15007KT P6SM SCT200
     FM021200 13005KT P6SM FEW250
     FM021600 12009G19KT P6SM SCT040 SCT250
     FM030200 21008KT P6SM OVC120=

USA.gov is the U.S. government's official web portal to all federal, state and local government web resources and services.